Time;durP1;ratioP1;P1;durP2;ratioP2;P2;SDS_P1;SDS_P2;PMS_P1;PMS_P2;Temp;Humidity;BMP_temperature;BMP_pressure;BME280_temperature;BME280_humidity;BME280_pressure;Samples;Min_cycle;Max_cycle;Signal;HPM_P1;HPM_P2
2021/06/23 00:02:21;;;;;;;67.63;62.85;;;;;;;19.38;72.51;93461.53;5111216;28;20028;-43
2021/06/23 00:04:46;;;;;;;69.15;65.15;;;;;;;19.38;73.07;93462.22;5111015;28;20027;-43
2021/06/23 00:07:12;;;;;;;77.75;73.15;;;;;;;19.42;73.08;93459.69;5110871;28;20027;-43
2021/06/23 00:09:37;;;;;;;56.08;52.03;;;;;;;19.39;73.00;93460.91;5099594;28;20032;-44
2021/06/23 00:12:04;;;;;;;51.72;48.20;;;;;;;19.23;72.42;93459.16;5090366;28;20020;-44
2021/06/23 00:14:31;;;;;;;47.15;44.00;;;;;;;19.30;71.77;93453.31;5090641;28;20024;-43
2021/06/23 00:16:57;;;;;;;48.20;44.88;;;;;;;19.19;72.18;93459.63;5090253;28;20564;-43
2021/06/23 00:19:23;;;;;;;49.78;46.85;;;;;;;19.19;72.10;93451.22;5090448;28;20107;-46
2021/06/23 00:21:49;;;;;;;45.88;42.40;;;;;;;19.05;72.40;93464.34;5090494;28;20025;-45
2021/06/23 00:24:14;;;;;;;44.30;40.65;;;;;;;19.04;72.32;93457.28;5090312;28;20024;-44
2021/06/23 00:26:39;;;;;;;41.80;38.67;;;;;;;19.12;72.80;93457.06;5090498;28;20016;-45
2021/06/23 00:29:05;;;;;;;41.25;37.63;;;;;;;18.89;72.43;93458.44;5090260;28;20413;-43
2021/06/23 00:31:32;;;;;;;33.22;30.33;;;;;;;18.95;72.27;93455.28;5090424;28;20028;-44
2021/06/23 00:33:59;;;;;;;33.75;31.15;;;;;;;18.96;72.61;93456.03;5090392;28;20024;-44
2021/06/23 00:36:24;;;;;;;37.90;34.55;;;;;;;18.82;73.61;93458.66;5087726;28;20485;-44
2021/06/23 00:38:50;;;;;;;39.60;36.28;;;;;;;18.81;73.48;93457.19;5099429;28;20027;-44
2021/06/23 00:41:19;;;;;;;45.13;41.45;;;;;;;18.68;73.82;93463.34;5108979;28;20749;-44
2021/06/23 00:43:44;;;;;;;;;;;;;;;18.70;73.54;93458.63;5110193;28;20024;-43
2021/06/23 00:46:11;;;;;;;21.80;16.95;;;;;;;18.49;74.33;93460.72;5106557;28;20384;-45
2021/06/23 00:48:37;;;;;;;30.92;28.15;;;;;;;18.58;73.92;93462.72;5109847;28;20035;-45
2021/06/23 00:51:03;;;;;;;29.83;26.75;;;;;;;18.65;73.69;93468.09;5109469;28;20020;-46
2021/06/23 00:53:28;;;;;;;33.03;30.38;;;;;;;18.53;73.33;93449.78;5110402;28;20026;-44
2021/06/23 00:55:55;;;;;;;32.42;29.77;;;;;;;18.51;74.26;93469.25;5109890;28;20023;-46
2021/06/23 00:58:21;;;;;;;34.35;31.40;;;;;;;18.42;74.08;93464.41;5111053;27;20415;-44
2021/06/23 01:00:46;;;;;;;37.17;33.00;;;;;;;18.50;73.76;93456.56;5110547;28;20107;-46
2021/06/23 01:03:12;;;;;;;35.85;32.40;;;;;;;18.39;74.36;93455.16;5110872;28;20023;-45
2021/06/23 01:05:38;;;;;;;32.80;29.58;;;;;;;18.57;74.54;93455.66;5108309;28;20019;-45
2021/06/23 01:08:05;;;;;;;29.95;27.05;;;;;;;18.51;74.10;93453.19;5109778;28;20027;-46
2021/06/23 01:10:34;;;;;;;107.05;99.75;;;;;;;18.45;74.86;93458.38;5108494;28;20496;-45
2021/06/23 01:13:11;;;;;;;195.95;178.15;;;;;;;18.54;74.38;93463.16;5108763;28;20649;-46
2021/06/23 01:15:39;;;;;;;196.05;179.02;;;;;;;18.60;73.50;93465.63;5110720;28;20050;-46
2021/06/23 01:18:05;;;;;;;90.63;83.93;;;;;;;18.55;73.49;93453.47;5109409;28;20039;-44
2021/06/23 01:20:31;;;;;;;75.65;68.97;;;;;;;18.47;73.76;93466.19;5110456;28;20400;-45
2021/06/23 01:22:56;;;;;;;38.08;30.38;;;;;;;18.49;73.87;93461.47;5110255;28;20032;-46
2021/06/23 01:25:21;;;;;;;31.13;27.88;;;;;;;18.53;73.71;93447.75;5110264;28;20019;-45
2021/06/23 01:27:47;;;;;;;35.25;32.22;;;;;;;18.31;73.64;93429.50;5110567;28;20027;-44
2021/06/23 01:30:15;;;;;;;80.63;73.50;;;;;;;18.37;73.37;93455.03;5110162;28;20412;-47
2021/06/23 01:32:40;;;;;;;24.48;22.17;;;;;;;18.43;72.52;93461.03;5109526;28;20432;-45
2021/06/23 01:35:07;;;;;;;26.75;24.00;;;;;;;18.22;73.38;93457.50;5110193;28;20031;-44
2021/06/23 01:37:32;;;;;;;25.38;23.52;;;;;;;18.36;72.97;93458.44;5110592;28;20027;-43
2021/06/23 01:39:59;;;;;;;25.65;22.65;;;;;;;18.25;73.21;93456.31;5110633;28;20470;-43
2021/06/23 01:42:25;;;;;;;23.55;21.35;;;;;;;18.34;72.95;93447.88;5110339;28;20028;-45
2021/06/23 01:44:50;;;;;;;25.73;22.45;;;;;;;18.29;73.24;93454.53;5110078;28;20221;-45
2021/06/23 01:47:16;;;;;;;25.10;22.05;;;;;;;18.17;73.96;93453.69;5097759;28;20032;-43
2021/06/23 01:49:41;;;;;;;22.02;18.00;;;;;;;18.22;72.99;93460.28;5098663;28;20056;-44
2021/06/23 01:52:07;;;;;;;20.10;18.02;;;;;;;18.21;73.13;93456.78;5109973;28;20020;-43
2021/06/23 01:54:33;;;;;;;17.27;15.95;;;;;;;18.10;73.78;93433.00;5098098;28;20036;-43
2021/06/23 01:56:58;;;;;;;23.80;20.00;;;;;;;18.18;73.52;93452.38;5089397;28;20028;-43
2021/06/23 01:59:26;;;;;;;24.02;21.92;;;;;;;18.15;73.76;93454.31;5089056;28;20089;-44
2021/06/23 02:02:01;;;;;;;29.98;26.73;;;;;;;18.17;74.32;93448.84;5096979;28;20024;-43
2021/06/23 02:05:04;;;;;;;24.52;22.15;;;;;;;18.17;74.21;93453.69;5106390;28;20067;-45
2021/06/23 02:07:49;;;;;;;22.30;19.75;;;;;;;18.10;74.06;93455.38;5109725;28;20032;-44
2021/06/23 02:10:29;;;;;;;22.02;16.30;;;;;;;18.07;73.66;93453.78;5090870;28;20465;-45
2021/06/23 02:13:23;;;;;;;22.17;20.00;;;;;;;18.03;73.27;93456.31;5108569;28;20424;-44
2021/06/23 02:15:49;;;;;;;19.80;17.80;;;;;;;18.08;73.16;93463.63;5109861;28;20447;-45
2021/06/23 02:18:15;;;;;;;17.88;16.17;;;;;;;17.98;73.22;93460.16;5109846;28;20063;-43
2021/06/23 02:20:41;;;;;;;21.35;19.35;;;;;;;18.03;73.74;93450.00;5109709;28;20024;-44
2021/06/23 02:23:08;;;;;;;26.30;23.80;;;;;;;17.86;74.38;93453.03;5108518;28;20019;-42
2021/06/23 02:25:33;;;;;;;26.50;20.15;;;;;;;17.87;74.25;93458.00;5108579;28;20020;-44
2021/06/23 02:27:59;;;;;;;20.45;16.77;;;;;;;17.91;73.13;93461.06;5109540;28;20042;-43
2021/06/23 02:30:24;;;;;;;18.23;16.40;;;;;;;17.77;73.62;93457.34;5108562;28;20020;-42
2021/06/23 02:32:55;;;;;;;20.35;18.33;;;;;;;17.72;73.20;93455.59;5109632;28;20469;-43
2021/06/23 02:35:24;;;;;;;15.40;13.55;;;;;;;17.65;73.27;93455.78;5108306;28;20512;-42
2021/06/23 02:37:50;;;;;;;26.65;14.10;;;;;;;17.72;72.34;93460.44;5108290;28;20099;-47
2021/06/23 02:40:17;;;;;;;20.52;16.30;;;;;;;17.72;72.60;93466.03;5109569;28;20024;-45
2021/06/23 02:42:42;;;;;;;17.73;16.10;;;;;;;17.63;73.15;93464.75;5108472;28;20023;-46
2021/06/23 02:45:08;;;;;;;19.67;17.70;;;;;;;17.67;73.38;93467.81;5107894;28;20034;-49
2021/06/23 02:47:35;;;;;;;21.42;16.10;;;;;;;17.73;73.32;93475.88;5108568;28;20106;-48
2021/06/23 02:50:00;;;;;;;18.20;13.45;;;;;;;17.59;73.68;93474.91;5109171;28;20448;-47
2021/06/23 02:52:26;;;;;;;18.90;14.65;;;;;;;17.37;74.15;93476.88;5109337;28;20098;-43
2021/06/23 02:54:51;;;;;;;21.40;17.67;;;;;;;17.40;74.29;93475.69;5108106;28;20100;-46
2021/06/23 02:57:17;;;;;;;21.23;19.00;;;;;;;17.47;74.43;93488.00;5106909;28;20019;-44
2021/06/23 02:59:45;;;;;;;21.58;19.27;;;;;;;17.51;74.71;93491.84;5089365;28;20012;-44
2021/06/23 03:02:11;;;;;;;26.23;20.75;;;;;;;17.47;74.70;93494.34;5089163;28;20099;-43
2021/06/23 03:04:36;;;;;;;25.80;20.35;;;;;;;17.54;74.69;93495.53;5089222;28;20035;-43
2021/06/23 03:07:09;;;;;;;27.02;22.02;;;;;;;17.57;74.46;93494.31;5087560;28;20055;-43
2021/06/23 03:09:35;;;;;;;44.40;17.52;;;;;;;17.50;74.32;93501.53;5089060;28;20110;-47
2021/06/23 03:12:00;;;;;;;22.63;17.92;;;;;;;17.48;74.13;93503.44;5089103;28;20099;-46
2021/06/23 03:14:26;;;;;;;20.65;14.75;;;;;;;17.48;73.76;93503.44;5088952;28;20028;-45
2021/06/23 03:16:51;;;;;;;21.52;16.67;;;;;;;17.40;73.95;93500.81;5091730;28;20028;-46
2021/06/23 03:19:17;;;;;;;27.70;18.80;;;;;;;17.37;74.49;93499.19;5092886;28;20405;-46
2021/06/23 03:21:42;;;;;;;21.63;19.08;;;;;;;17.40;74.35;93501.56;5092266;28;20020;-44
2021/06/23 03:24:08;;;;;;;25.50;22.92;;;;;;;17.49;74.43;93508.44;5091208;28;20051;-47
2021/06/23 03:26:34;;;;;;;22.48;19.30;;;;;;;17.43;74.95;93500.34;5092735;28;20059;-47
2021/06/23 03:29:16;;;;;;;22.13;19.83;;;;;;;17.55;74.95;93508.88;5110117;28;20070;-44
2021/06/23 03:31:43;;;;;;;24.13;16.35;;;;;;;17.58;74.41;93518.13;5113144;28;20022;-44
2021/06/23 03:34:09;;;;;;;18.05;16.25;;;;;;;17.58;73.95;93516.06;5113059;28;20115;-42
2021/06/23 03:36:34;;;;;;;25.60;17.50;;;;;;;17.55;74.50;93520.03;5111364;28;20492;-43
2021/06/23 03:39:00;;;;;;;21.48;17.83;;;;;;;17.63;73.86;93526.19;5110931;28;20046;-46
2021/06/23 03:41:25;;;;;;;33.70;28.33;;;;;;;17.54;74.97;93518.59;5110796;28;20461;-48
2021/06/23 03:43:51;;;;;;;29.85;25.08;;;;;;;17.53;75.13;93514.31;5110418;28;20026;-47
2021/06/23 03:46:16;;;;;;;32.33;28.42;;;;;;;17.55;75.68;93527.69;5110861;28;20031;-45
2021/06/23 03:48:42;;;;;;;62.90;57.10;;;;;;;17.63;75.36;93531.06;5110386;28;20019;-45
2021/06/23 03:51:07;;;;;;;28.80;25.17;;;;;;;17.71;75.27;93523.97;5110738;28;20023;-44
2021/06/23 03:53:33;;;;;;;80.22;73.88;;;;;;;17.66;75.70;93536.16;5109411;28;20019;-46
2021/06/23 03:55:58;;;;;;;33.47;28.90;;;;;;;17.71;75.75;93537.19;5111905;28;20027;-46
2021/06/23 03:58:23;;;;;;;20.10;18.15;;;;;;;17.67;74.95;93534.81;5112352;28;20015;-43
2021/06/23 04:00:49;;;;;;;22.33;19.83;;;;;;;17.81;74.68;93540.66;5112344;28;20076;-42
2021/06/23 04:03:14;;;;;;;29.75;27.02;;;;;;;17.86;74.25;93545.94;5112104;28;20038;-43
2021/06/23 04:05:40;;;;;;;20.52;18.38;;;;;;;17.82;74.57;93544.94;5112226;28;20028;-44
2021/06/23 04:08:05;;;;;;;35.35;23.98;;;;;;;17.67;75.24;93542.50;5111252;28;20023;-43
2021/06/23 04:10:31;;;;;;;30.88;28.10;;;;;;;17.73;75.80;93540.84;5111391;28;20019;-42
2021/06/23 04:12:56;;;;;;;32.85;29.13;;;;;;;17.88;75.50;93546.09;5111693;28;20016;-42
2021/06/23 04:15:22;;;;;;;32.28;25.30;;;;;;;17.87;75.57;93547.41;5111693;28;20054;-42
2021/06/23 04:17:47;;;;;;;29.42;26.08;;;;;;;17.94;75.77;93543.69;5111914;28;20023;-45
2021/06/23 04:20:13;;;;;;;34.78;31.30;;;;;;;17.89;76.17;93547.53;5111122;28;20792;-44
2021/06/23 04:22:39;;;;;;;38.17;34.83;;;;;;;17.88;77.03;93540.50;5111401;28;20412;-42
2021/06/23 04:25:10;;;;;;;38.40;35.25;;;;;;;17.99;76.74;93548.25;5111270;28;20032;-42
2021/06/23 04:27:35;;;;;;;37.15;34.28;;;;;;;17.95;76.82;93550.72;5110779;27;20031;-43
2021/06/23 04:30:04;;;;;;;51.05;46.13;;;;;;;17.95;77.69;93556.31;5111437;28;20153;-42
2021/06/23 04:32:29;;;;;;;42.30;38.47;;;;;;;18.02;77.85;93552.63;5111324;28;20031;-43
2021/06/23 04:34:54;;;;;;;40.75;37.53;;;;;;;18.15;77.60;93563.28;5111030;28;20437;-42
2021/06/23 04:37:20;;;;;;;59.00;54.72;;;;;;;18.25;77.75;93563.25;5111158;28;20020;-43
2021/06/23 04:39:45;;;;;;;60.88;56.05;;;;;;;18.41;77.22;93563.63;5093567;28;20028;-43
2021/06/23 04:42:11;;;;;;;58.85;54.05;;;;;;;18.49;77.27;93564.16;5090865;28;20023;-43
2021/06/23 04:44:36;;;;;;;76.85;71.15;;;;;;;18.52;77.74;93560.91;5090885;28;20027;-42
2021/06/23 04:47:02;;;;;;;84.60;78.13;;;;;;;18.62;77.55;93567.19;5093102;28;20020;-44
2021/06/23 04:49:27;;;;;;;77.65;71.57;;;;;;;18.70;77.26;93561.38;5097852;28;20043;-42
2021/06/23 04:51:53;;;;;;;70.88;65.68;;;;;;;18.75;77.74;93571.50;5110796;28;20042;-43
2021/06/23 04:54:18;;;;;;;77.55;72.00;;;;;;;18.79;78.33;93572.50;5110829;28;20491;-43
2021/06/23 04:56:43;;;;;;;122.70;114.72;;;;;;;18.85;78.64;93574.97;5111094;28;20624;-45
2021/06/23 04:59:09;;;;;;;92.05;85.55;;;;;;;18.97;79.15;93572.97;5111022;28;20020;-42
2021/06/23 05:01:34;;;;;;;94.30;88.15;;;;;;;19.06;78.58;93579.81;5110516;28;20023;-42
2021/06/23 05:04:00;;;;;;;97.95;92.00;;;;;;;19.17;78.56;93582.66;5110693;28;20035;-43
2021/06/23 05:06:25;;;;;;;94.90;88.68;;;;;;;19.26;78.72;93579.03;5096812;28;20024;-46
2021/06/23 05:08:51;;;;;;;119.55;112.30;;;;;;;19.35;78.33;93577.50;5090178;28;20031;-45
2021/06/23 05:11:16;;;;;;;130.68;122.53;;;;;;;19.45;78.64;93584.47;5090070;28;20027;-44
2021/06/23 05:13:42;;;;;;;112.70;104.32;;;;;;;19.50;78.82;93582.66;5090168;28;20021;-44
2021/06/23 05:16:08;;;;;;;125.45;117.57;;;;;;;19.58;78.17;93583.91;5090245;28;20031;-42
2021/06/23 05:18:34;;;;;;;130.38;119.57;;;;;;;19.70;77.89;93583.94;5090282;28;20031;-43
2021/06/23 05:21:01;;;;;;;131.10;122.97;;;;;;;19.82;78.28;93592.34;5089894;28;20528;-43
2021/06/23 05:23:26;;;;;;;157.73;148.20;;;;;;;19.89;78.07;93585.78;5088274;28;20032;-46
2021/06/23 05:25:52;;;;;;;157.27;147.20;;;;;;;19.97;78.08;93589.09;5089281;28;20027;-43
2021/06/23 05:28:18;;;;;;;163.25;154.40;;;;;;;20.04;78.16;93583.25;5090142;28;20015;-45
2021/06/23 05:30:43;;;;;;;188.20;178.35;;;;;;;20.18;78.63;93578.50;5090326;28;20544;-43
2021/06/23 05:33:08;;;;;;;209.02;197.18;;;;;;;20.29;78.82;93577.78;5089842;28;20028;-43
2021/06/23 05:35:34;;;;;;;183.65;173.82;;;;;;;20.38;79.14;93593.03;5089836;28;20027;-45
2021/06/23 05:37:59;;;;;;;210.60;200.20;;;;;;;20.49;79.74;93586.69;5089138;28;20027;-45
2021/06/23 05:40:25;;;;;;;205.43;194.43;;;;;;;20.56;79.82;93585.72;5089698;28;20020;-47
2021/06/23 05:42:50;;;;;;;182.55;173.30;;;;;;;20.68;79.78;93588.50;5090076;28;20020;-45
2021/06/23 05:45:16;;;;;;;185.82;176.02;;;;;;;20.81;78.12;93585.06;5103404;28;20035;-44
2021/06/23 05:47:41;;;;;;;199.02;189.20;;;;;;;20.87;77.80;93577.75;5095283;28;20058;-47
2021/06/23 05:50:07;;;;;;;214.27;203.13;;;;;;;21.10;76.69;93588.91;5089406;28;20044;-46
2021/06/23 05:52:33;;;;;;;206.77;195.82;;;;;;;21.11;76.74;93578.44;5094474;28;20019;-45
2021/06/23 05:54:58;;;;;;;218.77;207.32;;;;;;;21.38;77.02;93595.41;5092727;28;20101;-47
2021/06/23 05:57:24;;;;;;;223.60;211.70;;;;;;;21.53;77.15;93594.13;5096033;28;20028;-44
2021/06/23 05:59:49;;;;;;;235.75;222.98;;;;;;;21.58;76.00;93590.94;5104970;28;20023;-44
2021/06/23 06:02:15;;;;;;;236.35;223.38;;;;;;;21.70;76.21;93594.41;5108211;28;20027;-44
2021/06/23 06:04:40;;;;;;;228.80;216.65;;;;;;;21.77;76.70;93592.66;5108691;28;20028;-45
2021/06/23 06:07:06;;;;;;;245.52;232.18;;;;;;;21.88;76.09;93597.50;5108984;28;20070;-45
2021/06/23 06:09:31;;;;;;;217.57;205.95;;;;;;;21.91;74.79;93592.72;5109104;28;20452;-45
2021/06/23 06:11:56;;;;;;;221.05;208.98;;;;;;;21.98;74.07;93598.06;5108794;28;20042;-44
2021/06/23 06:14:22;;;;;;;226.93;215.40;;;;;;;22.00;75.10;93594.63;5108456;28;20020;-45
2021/06/23 06:16:47;;;;;;;226.88;214.57;;;;;;;22.10;74.91;93597.97;5108547;28;20035;-45
2021/06/23 06:19:13;;;;;;;215.68;204.25;;;;;;;22.12;74.79;93596.00;5108777;28;20031;-46
2021/06/23 06:21:38;;;;;;;220.15;208.70;;;;;;;22.12;74.79;93600.91;5108758;28;20031;-45
2021/06/23 06:24:04;;;;;;;232.77;219.20;;;;;;;22.17;75.44;93603.31;5108833;28;20533;-46
2021/06/23 06:26:30;;;;;;;231.77;219.15;;;;;;;22.25;75.36;93606.56;5108828;28;20519;-46
2021/06/23 06:28:56;;;;;;;230.02;217.70;;;;;;;22.34;73.68;93604.91;5107215;28;20046;-44
2021/06/23 06:31:22;;;;;;;233.05;220.63;;;;;;;22.46;73.41;93600.63;5108590;28;20020;-44
2021/06/23 06:33:48;;;;;;;231.20;219.02;;;;;;;22.60;73.11;93598.59;5108542;28;20030;-45
2021/06/23 06:36:14;;;;;;;257.33;244.30;;;;;;;22.73;71.16;93608.41;5108800;28;20050;-44
2021/06/23 06:38:39;;;;;;;261.98;248.27;;;;;;;22.89;71.27;93608.50;5108450;28;20040;-44
2021/06/23 06:41:05;;;;;;;273.50;258.15;;;;;;;22.99;72.45;93609.00;5108639;28;20024;-46
2021/06/23 06:43:30;;;;;;;262.85;249.25;;;;;;;23.09;71.70;93613.06;5108477;28;20441;-44
2021/06/23 06:45:56;;;;;;;257.65;244.15;;;;;;;23.20;69.53;93615.03;5108408;28;20066;-45
2021/06/23 06:48:24;;;;;;;256.77;243.55;;;;;;;23.19;69.69;93613.59;5088276;28;20495;-43
2021/06/23 06:51:25;;;;;;;269.10;254.80;;;;;;;23.21;71.16;93613.69;5109455;28;20100;-46
2021/06/23 06:53:50;;;;;;;258.90;245.82;;;;;;;23.25;70.04;93611.06;5097803;28;20051;-45
2021/06/23 06:56:16;;;;;;;248.73;234.73;;;;;;;23.32;70.37;93609.97;5111853;28;20047;-45
2021/06/23 06:58:42;;;;;;;265.23;251.25;;;;;;;23.39;71.46;93608.22;5098042;28;20042;-46
2021/06/23 07:01:07;;;;;;;280.77;266.45;;;;;;;23.56;69.12;93610.50;5098603;28;20090;-47
2021/06/23 07:03:33;;;;;;;254.43;240.85;;;;;;;23.63;69.44;93611.50;5110605;28;20046;-49
2021/06/23 07:05:58;;;;;;;292.58;277.48;;;;;;;23.63;70.32;93608.69;5110673;28;20525;-45
2021/06/23 07:08:24;;;;;;;276.38;261.17;;;;;;;23.80;68.33;93603.16;5110370;28;20031;-48
2021/06/23 07:10:49;;;;;;;279.00;263.45;;;;;;;23.87;69.58;93607.00;5110698;28;20051;-46
2021/06/23 07:13:15;;;;;;;286.77;272.60;;;;;;;23.97;69.81;93604.69;5110736;28;20026;-49
2021/06/23 07:15:40;;;;;;;289.52;274.27;;;;;;;24.00;68.82;93604.13;5110291;28;20028;-44
2021/06/23 07:18:09;;;;;;;271.05;257.38;;;;;;;24.14;69.17;93609.75;5111784;28;20031;-45
2021/06/23 07:20:34;;;;;;;266.17;251.73;;;;;;;24.24;69.45;93610.19;5111841;28;20038;-46
2021/06/23 07:23:00;;;;;;;298.90;283.92;;;;;;;24.32;69.18;93609.84;5111719;28;20039;-46
2021/06/23 07:25:26;;;;;;;329.38;312.33;;;;;;;24.49;68.03;93598.66;5111794;28;20083;-47
2021/06/23 07:27:51;;;;;;;335.65;318.13;;;;;;;24.78;67.59;93607.03;5089939;28;20618;-47
2021/06/23 07:30:17;;;;;;;341.90;323.52;;;;;;;25.21;67.24;93603.91;5092926;28;20498;-46
2021/06/23 07:33:05;;;;;;;359.67;340.40;;;;;;;25.58;65.33;93605.47;5110651;28;20728;-46
2021/06/23 07:38:15;;;;;;;369.70;350.85;;;;;;;26.92;59.23;93610.72;5108650;28;20046;-47
2021/06/23 07:43:11;;;;;;;377.48;357.02;;;;;;;28.30;55.45;93608.28;5110882;28;20032;-49
2021/06/23 07:45:37;;;;;;;333.25;314.98;;;;;;;29.04;53.60;93609.75;5110905;28;20110;-47
2021/06/23 07:48:03;;;;;;;335.45;317.45;;;;;;;29.81;50.14;93614.69;5110624;28;20027;-48
2021/06/23 07:50:36;;;;;;;284.02;268.27;;;;;;;30.57;48.18;93604.38;5110314;28;20524;-45
2021/06/23 07:53:21;;;;;;;247.95;233.82;;;;;;;31.28;45.63;93603.72;5110099;28;20035;-44
2021/06/23 07:56:36;;;;;;;242.25;228.45;;;;;;;32.19;43.93;93603.25;5111193;28;20065;-47
2021/06/23 08:02:02;;;;;;;170.43;159.73;;;;;;;33.58;40.19;93610.88;5109439;28;20172;-48
2021/06/23 08:09:35;;;;;;;137.57;128.57;;;;;;;35.41;36.85;93608.63;5110393;28;20575;-47
2021/06/23 08:12:17;;;;;;;116.22;108.50;;;;;;;35.98;34.61;93615.25;5110094;28;20023;-46
2021/06/23 08:14:43;;;;;;;107.13;100.43;;;;;;;36.46;34.39;93616.03;5110549;28;20028;-48
2021/06/23 08:17:09;;;;;;;108.45;100.97;;;;;;;36.78;33.30;93612.38;5110470;28;20450;-45
2021/06/23 08:19:36;;;;;;;101.90;94.80;;;;;;;37.25;32.94;93610.81;5110344;27;20039;-47
2021/06/23 08:22:01;;;;;;;103.97;95.38;;;;;;;37.38;32.00;93611.53;5110315;28;20027;-47
2021/06/23 08:24:27;;;;;;;93.55;87.03;;;;;;;37.54;31.73;93616.50;5110550;28;20027;-48
2021/06/23 08:26:52;;;;;;;97.20;90.55;;;;;;;37.67;30.15;93609.94;5110308;28;20043;-48
2021/06/23 08:29:18;;;;;;;98.60;90.93;;;;;;;38.27;31.28;93623.28;5110106;28;20030;-49
2021/06/23 08:31:43;;;;;;;98.68;92.25;;;;;;;38.60;29.96;93624.47;5110267;28;20023;-43
2021/06/23 08:34:08;;;;;;;90.43;84.18;;;;;;;38.90;29.23;93619.91;5109702;27;20483;-45
2021/06/23 08:36:34;;;;;;;109.80;102.63;;;;;;;38.66;29.19;93626.59;5110020;28;20020;-47
2021/06/23 08:38:59;;;;;;;89.78;82.95;;;;;;;39.11;29.77;93621.09;5109617;28;20119;-47
2021/06/23 08:41:26;;;;;;;89.55;83.00;;;;;;;39.49;27.80;93626.47;5109513;28;20077;-45
2021/06/23 08:44:00;;;;;;;88.20;81.35;;;;;;;39.28;26.21;93623.09;5109211;28;20031;-47
2021/06/23 08:46:26;;;;;;;92.35;85.35;;;;;;;39.60;25.27;93627.78;5109595;28;20508;-47
2021/06/23 08:48:52;;;;;;;96.18;89.78;;;;;;;39.58;24.83;93632.88;5108197;28;20152;-49
2021/06/23 08:51:18;;;;;;;99.43;93.00;;;;;;;39.66;24.33;93636.38;5109343;28;20020;-45
2021/06/23 08:53:43;;;;;;;74.30;68.22;;;;;;;38.51;25.80;93640.41;5108133;28;20195;-46
2021/06/23 08:56:09;;;;;;;134.88;126.97;;;;;;;38.10;25.29;93633.47;5109165;27;20484;-46
2021/06/23 08:58:35;;;;;;;119.80;111.72;;;;;;;37.91;25.66;93612.00;5109189;28;20832;-48
2021/06/23 09:01:00;;;;;;;132.93;124.38;;;;;;;38.45;25.94;93628.94;5109366;27;20111;-48
2021/06/23 09:03:26;;;;;;;117.93;109.50;;;;;;;38.99;26.30;93627.00;5109945;28;20028;-47
2021/06/23 09:05:56;;;;;;;117.85;110.25;;;;;;;38.59;24.70;93636.75;5100455;28;20024;-47
2021/06/23 09:08:36;;;;;;;147.07;137.55;;;;;;;37.87;24.50;93643.72;5090726;28;20039;-45
2021/06/23 09:11:13;;;;;;;151.18;141.57;;;;;;;37.69;26.55;93638.03;5108681;28;20504;-46
2021/06/23 09:13:38;;;;;;;140.30;131.10;;;;;;;38.04;25.68;93627.75;5106738;28;20116;-46
2021/06/23 09:16:04;;;;;;;132.55;123.72;;;;;;;38.13;24.49;93634.19;5097119;28;20067;-48
2021/06/23 09:18:34;;;;;;;152.60;143.35;;;;;;;38.22;24.91;93639.19;5086384;28;20675;-48
2021/06/23 09:21:04;;;;;;;130.20;121.82;;;;;;;38.71;25.99;93644.59;5086716;28;20793;-48
2021/06/23 09:23:37;;;;;;;128.90;120.05;;;;;;;38.68;23.92;93630.19;5088058;28;20564;-50
2021/06/23 09:26:23;;;;;;;138.50;128.95;;;;;;;38.72;25.32;93629.44;5108045;28;20415;-47
2021/06/23 09:29:15;;;;;;;113.00;105.30;;;;;;;39.03;26.93;93642.13;5104502;28;20457;-47
2021/06/23 09:32:04;;;;;;;106.68;99.88;;;;;;;38.81;24.26;93647.41;5106826;28;20023;-46
2021/06/23 09:34:47;;;;;;;123.18;115.05;;;;;;;38.41;26.47;93648.44;5106901;28;20028;-48
2021/06/23 09:37:25;;;;;;;97.90;90.43;;;;;;;38.95;24.45;93650.16;5107177;28;20085;-46
2021/06/23 09:40:18;;;;;;;133.25;124.78;;;;;;;38.98;23.30;93660.22;5106731;28;20089;-49
2021/06/23 09:42:45;;;;;;;142.10;132.50;;;;;;;38.76;23.63;93643.84;5106741;28;20118;-45
2021/06/23 09:45:12;;;;;;;136.20;127.50;;;;;;;38.22;25.00;93647.84;5107221;28;20027;-46
2021/06/23 09:47:38;;;;;;;140.63;131.20;;;;;;;38.25;24.62;93645.69;5094624;28;20110;-45
2021/06/23 09:50:06;;;;;;;130.73;121.75;;;;;;;38.13;27.02;93616.88;5100899;28;20457;-45
2021/06/23 09:52:35;;;;;;;131.30;122.57;;;;;;;38.02;25.94;93645.06;5088219;28;20114;-46
2021/06/23 09:55:01;;;;;;;168.52;158.25;;;;;;;37.97;25.96;93637.91;5086546;28;20126;-45
2021/06/23 09:57:27;;;;;;;140.45;131.52;;;;;;;38.61;26.14;93642.50;5087368;28;20024;-45
2021/06/23 10:00:06;;;;;;;124.75;116.22;;;;;;;38.91;24.53;93641.53;5087088;28;20181;-47
2021/06/23 10:02:37;;;;;;;130.02;121.47;;;;;;;38.81;24.67;93641.63;5088105;28;20074;-47
2021/06/23 10:05:23;;;;;;;122.40;114.40;;;;;;;38.37;24.94;93643.41;5087692;28;20539;-47
2021/06/23 10:07:49;;;;;;;131.30;121.28;;;;;;;38.17;24.95;93643.53;5068554;28;20040;-45
2021/06/23 10:10:17;;;;;;;125.18;115.85;;;;;;;38.33;26.26;93654.28;5067644;28;20024;-45
2021/06/23 10:12:44;;;;;;;135.65;126.97;;;;;;;37.81;25.79;93635.13;5083358;28;20115;-46
2021/06/23 10:15:12;;;;;;;154.23;144.90;;;;;;;38.06;24.48;93636.41;5087704;28;20560;-45
2021/06/23 10:17:37;;;;;;;167.55;157.20;;;;;;;38.07;25.60;93645.78;5087847;28;20099;-47
2021/06/23 10:20:04;;;;;;;135.68;126.30;;;;;;;37.92;27.07;93642.97;5087720;28;20479;-44
2021/06/23 10:22:31;;;;;;;153.57;144.20;;;;;;;38.12;25.91;93639.25;5087743;28;20028;-44
2021/06/23 10:25:02;;;;;;;154.68;144.70;;;;;;;38.58;27.26;93638.19;5089374;28;20032;-47
2021/06/23 10:27:27;;;;;;;168.73;158.15;;;;;;;38.80;25.79;93640.91;5091851;28;20031;-50
2021/06/23 10:29:57;;;;;;;155.40;145.73;;;;;;;38.29;25.40;93640.59;5090556;28;20028;-48
2021/06/23 10:32:22;;;;;;;174.38;163.98;;;;;;;38.49;26.93;93634.66;5092044;28;20089;-45
2021/06/23 10:34:48;;;;;;;165.80;155.55;;;;;;;38.62;26.32;93641.03;5088972;28;20028;-48
2021/06/23 10:37:14;;;;;;;161.80;152.73;;;;;;;38.93;25.87;93650.16;5071643;28;20032;-46
2021/06/23 10:39:40;;;;;;;162.07;152.63;;;;;;;39.23;26.79;93639.03;5071044;28;20032;-50
2021/06/23 10:42:07;;;;;;;157.50;147.73;;;;;;;38.75;25.54;93644.59;5071103;28;20025;-49
2021/06/23 10:44:43;;;;;;;151.65;142.65;;;;;;;38.61;27.33;93642.50;5071710;28;20031;-49
2021/06/23 10:47:27;;;;;;;188.93;177.98;;;;;;;37.92;27.51;93642.28;5080911;28;20102;-47
2021/06/23 10:49:53;;;;;;;192.43;181.23;;;;;;;37.65;27.59;93626.53;5091155;28;20475;-51
2021/06/23 10:52:22;;;;;;;199.52;187.73;;;;;;;37.85;26.03;93646.63;5090496;28;21729;-48
2021/06/23 10:54:48;;;;;;;180.07;169.18;;;;;;;37.86;27.75;93645.88;5090784;28;20488;-49
2021/06/23 10:57:26;;;;;;;194.50;183.50;;;;;;;37.56;28.94;93642.41;5091075;28;20032;-48
2021/06/23 10:59:56;;;;;;;187.38;175.73;;;;;;;37.18;27.74;93641.09;5091268;28;20039;-49
2021/06/23 11:02:37;;;;;;;185.65;175.02;;;;;;;36.76;27.80;93635.41;5090238;28;20537;-50
2021/06/23 11:05:05;;;;;;;186.55;175.30;;;;;;;36.56;28.05;93643.34;5091010;28;20067;-52
2021/06/23 11:07:34;;;;;;;212.30;199.77;;;;;;;36.37;27.84;93656.97;5091160;28;20044;-52
2021/06/23 11:10:15;;;;;;;196.38;184.50;;;;;;;35.99;28.90;93646.19;5089611;28;20028;-56
2021/06/23 11:12:47;;;;;;;210.98;199.10;;;;;;;35.90;30.15;93646.84;5090383;28;20508;-50
2021/06/23 11:15:13;;;;;;;202.38;190.15;;;;;;;35.57;29.08;93646.75;5090928;28;20081;-50
2021/06/23 11:17:39;;;;;;;201.18;188.98;;;;;;;35.62;29.29;93648.22;5090927;28;20024;-53
2021/06/23 11:20:37;;;;;;;199.65;188.15;;;;;;;35.33;31.08;93651.66;5090816;28;20039;-53
2021/06/23 11:23:03;;;;;;;203.43;192.23;;;;;;;35.11;30.31;93632.19;5090986;28;20580;-50
2021/06/23 11:25:33;;;;;;;203.70;192.10;;;;;;;35.07;30.07;93655.13;5090106;28;20027;-56
2021/06/23 11:28:08;;;;;;;216.15;203.45;;;;;;;34.99;31.33;93650.06;5090962;28;20048;-50